createdAt,value
2017-10-29T00:08:05.000Z,997.015
2017-10-29T00:18:05.000Z,996.731
2017-10-29T00:28:05.000Z,996.771
2017-10-29T00:38:05.000Z,996.755
2017-10-29T00:48:05.000Z,996.483
2017-10-29T00:58:05.000Z,996.424
2017-10-29T01:08:06.000Z,996.273
2017-10-29T01:18:06.000Z,995.822
2017-10-29T01:28:08.000Z,995.725
2017-10-29T01:38:07.000Z,995.556
2017-10-29T01:48:06.000Z,995.474
2017-10-29T01:58:06.000Z,995.392
2017-10-29T02:08:06.000Z,995.352
2017-10-29T02:18:06.000Z,995.037
2017-10-29T02:28:06.000Z,994.88
2017-10-29T02:38:06.000Z,995.152
2017-10-29T02:48:06.000Z,995.198
2017-10-29T02:58:06.000Z,994.992
2017-10-29T03:08:06.000Z,995.391
2017-10-29T03:18:06.000Z,995.993
2017-10-29T03:28:06.000Z,996.336
2017-10-29T03:38:06.000Z,996.205
2017-10-29T03:48:06.000Z,996.239
2017-10-29T03:58:06.000Z,996.447
2017-10-29T04:08:06.000Z,996.453
2017-10-29T04:18:06.000Z,996.439
2017-10-29T04:28:06.000Z,996.694
2017-10-29T04:38:06.000Z,996.958
2017-10-29T04:48:06.000Z,997.101
2017-10-29T04:58:06.000Z,997.379
2017-10-29T05:08:06.000Z,997.471
2017-10-29T05:18:06.000Z,997.946
2017-10-29T05:28:06.000Z,998.134
2017-10-29T05:38:06.000Z,998.236
2017-10-29T05:48:06.000Z,998.393
2017-10-29T05:58:06.000Z,998.7
2017-10-29T06:08:06.000Z,999.11
2017-10-29T06:18:06.000Z,999.41
2017-10-29T06:28:06.000Z,999.51
2017-10-29T06:38:06.000Z,999.899
2017-10-29T06:48:06.000Z,1000.153
2017-10-29T06:58:06.000Z,1000.287
2017-10-29T07:08:06.000Z,1000.537
2017-10-29T07:18:06.000Z,1000.818
2017-10-29T07:28:06.000Z,1001.154
2017-10-29T07:38:06.000Z,1001.39
2017-10-29T07:48:06.000Z,1001.654
2017-10-29T07:58:06.000Z,1001.813
2017-10-29T08:08:06.000Z,1002.126
2017-10-29T08:18:06.000Z,1002.396
2017-10-29T08:28:06.000Z,1002.561
2017-10-29T08:38:06.000Z,1002.635
2017-10-29T08:48:06.000Z,1002.793
2017-10-29T08:58:06.000Z,1002.983
2017-10-29T09:08:06.000Z,1003.155
2017-10-29T09:18:06.000Z,1003.325
2017-10-29T09:28:06.000Z,1003.624
2017-10-29T09:38:06.000Z,1003.824
2017-10-29T09:48:07.000Z,1003.874
2017-10-29T09:58:07.000Z,1004.049
2017-10-29T10:08:07.000Z,1004.237
2017-10-29T10:18:07.000Z,1004.461
2017-10-29T10:28:07.000Z,1004.848
2017-10-29T10:38:07.000Z,1005.168
2017-10-29T10:48:07.000Z,1005.041
2017-10-29T10:58:09.000Z,1005.074
2017-10-29T11:08:07.000Z,1005.181
2017-10-29T11:18:07.000Z,1005.209
2017-10-29T11:28:07.000Z,1005.249
2017-10-29T11:38:07.000Z,1005.608
2017-10-29T11:48:07.000Z,1005.73
2017-10-29T11:58:07.000Z,1005.709
2017-10-29T12:08:07.000Z,1005.725
2017-10-29T12:18:07.000Z,1005.894
2017-10-29T12:28:07.000Z,1006.043
2017-10-29T12:38:08.000Z,1006.146
2017-10-29T12:48:07.000Z,1006.37
2017-10-29T12:58:07.000Z,1006.359
2017-10-29T13:08:07.000Z,1006.61
2017-10-29T13:18:07.000Z,1006.716
2017-10-29T13:28:07.000Z,1006.944
2017-10-29T13:38:07.000Z,1007.12
2017-10-29T13:48:07.000Z,1007.074
2017-10-29T13:58:07.000Z,1007.374
2017-10-29T14:08:07.000Z,1007.471
2017-10-29T14:18:07.000Z,1007.642
2017-10-29T14:28:07.000Z,1007.695
2017-10-29T14:38:07.000Z,1007.634
2017-10-29T14:48:07.000Z,1007.588
2017-10-29T14:58:07.000Z,1007.532
2017-10-29T15:08:07.000Z,1007.623
2017-10-29T15:18:08.000Z,1007.861
2017-10-29T15:28:07.000Z,1008.027
2017-10-29T15:38:07.000Z,1008.143
2017-10-29T15:48:07.000Z,1008.369
2017-10-29T15:58:07.000Z,1008.692
2017-10-29T16:08:07.000Z,1008.837
2017-10-29T16:18:07.000Z,1008.995
2017-10-29T16:28:09.000Z,1009.105
2017-10-29T16:38:07.000Z,1009.345
2017-10-29T16:48:07.000Z,1009.418
2017-10-29T16:58:07.000Z,1009.492
2017-10-29T17:08:07.000Z,1009.613
2017-10-29T17:18:07.000Z,1009.809
2017-10-29T17:28:07.000Z,1009.974
2017-10-29T17:38:07.000Z,1010.004
2017-10-29T17:48:07.000Z,1010.189
2017-10-29T17:58:07.000Z,1010.447
2017-10-29T18:08:07.000Z,1010.446
2017-10-29T18:18:08.000Z,1010.632
2017-10-29T18:28:09.000Z,1010.782
2017-10-29T18:38:08.000Z,1010.826
2017-10-29T18:48:08.000Z,1010.933
2017-10-29T18:58:08.000Z,1011
2017-10-29T19:08:08.000Z,1010.972
2017-10-29T19:18:08.000Z,1011.017
2017-10-29T19:28:08.000Z,1011.133
2017-10-29T19:38:08.000Z,1011.326
2017-10-29T19:48:08.000Z,1011.555
2017-10-29T19:58:08.000Z,1011.601
2017-10-29T20:08:08.000Z,1011.69
2017-10-29T20:18:08.000Z,1011.709
2017-10-29T20:28:08.000Z,1011.801
2017-10-29T20:38:08.000Z,1011.878
2017-10-29T20:48:11.000Z,1012
2017-10-29T20:58:08.000Z,1012.2
2017-10-29T21:08:08.000Z,1012.367
2017-10-29T21:18:08.000Z,1012.45
2017-10-29T21:28:08.000Z,1012.47
2017-10-29T21:38:08.000Z,1012.494
2017-10-29T21:48:09.000Z,1012.517
2017-10-29T21:58:12.000Z,1012.546
2017-10-29T22:08:09.000Z,1012.56
2017-10-29T22:18:08.000Z,1012.621
2017-10-29T22:28:08.000Z,1012.693
2017-10-29T22:38:08.000Z,1012.602
2017-10-29T22:48:08.000Z,1012.748
2017-10-29T22:58:08.000Z,1012.772
2017-10-29T23:08:08.000Z,1012.904
2017-10-29T23:18:08.000Z,1012.993
2017-10-29T23:28:08.000Z,1012.958
2017-10-29T23:38:08.000Z,1013.085
2017-10-29T23:48:11.000Z,1013.135
2017-10-29T23:58:10.000Z,1013.119
